createdAt,value
2017-05-30T00:01:50.488Z,24.60
2017-05-30T00:06:48.103Z,24.60
2017-05-30T00:11:46.111Z,24.60
2017-05-30T00:14:14.427Z,24.50
2017-05-30T00:16:42.744Z,24.50
2017-05-30T00:19:11.119Z,24.50
2017-05-30T00:21:39.492Z,24.40
2017-05-30T00:24:08.543Z,24.40
2017-05-30T00:26:36.899Z,24.40
2017-05-30T00:29:04.830Z,24.40
2017-05-30T00:31:33.135Z,24.40
2017-05-30T00:34:01.900Z,24.40
2017-05-30T00:36:29.861Z,24.30
2017-05-30T00:38:57.803Z,24.20
2017-05-30T00:41:26.170Z,23.40
2017-05-30T00:43:54.475Z,23.40
2017-05-30T00:46:22.783Z,23.30
2017-05-30T00:48:51.499Z,23.30
2017-05-30T00:51:19.816Z,23.50
2017-05-30T00:53:47.743Z,23.60
2017-05-30T00:56:16.109Z,23.70
2017-05-30T00:58:44.081Z,23.80
2017-05-30T01:01:12.043Z,23.90
2017-05-30T01:03:40.409Z,24.00
2017-05-30T01:06:08.351Z,24.00
2017-05-30T01:08:36.654Z,24.00
2017-05-30T01:11:05.015Z,24.00
2017-05-30T01:13:33.328Z,24.00
2017-05-30T01:16:01.291Z,24.10
2017-05-30T01:18:29.680Z,24.00
2017-05-30T01:20:57.986Z,24.00
2017-05-30T01:25:55.266Z,23.90
2017-05-30T01:28:23.211Z,23.90
2017-05-30T01:30:51.511Z,23.80
2017-05-30T01:33:19.875Z,23.90
2017-05-30T01:35:47.804Z,23.70
2017-05-30T01:38:16.132Z,23.70
2017-05-30T01:40:44.545Z,23.70
2017-05-30T01:43:12.879Z,23.70
2017-05-30T01:48:10.555Z,23.70
2017-05-30T01:50:38.503Z,23.60
2017-05-30T01:53:06.815Z,23.60
2017-05-30T01:55:35.175Z,23.50
2017-05-30T01:58:03.479Z,23.60
2017-05-30T02:00:31.426Z,23.50
2017-05-30T02:02:59.812Z,23.50
2017-05-30T02:05:28.127Z,23.40
2017-05-30T02:07:56.434Z,23.40
2017-05-30T02:10:25.164Z,23.40
2017-05-30T02:12:53.475Z,23.40
2017-05-30T02:15:21.414Z,23.40
2017-05-30T02:17:49.771Z,23.40
2017-05-30T02:20:17.699Z,23.50
2017-05-30T02:22:45.641Z,23.50
2017-05-30T02:25:14.034Z,23.50
2017-05-30T02:27:42.021Z,23.50
2017-05-30T02:30:10.370Z,23.40
2017-05-30T02:32:38.730Z,23.40
2017-05-30T02:40:05.248Z,23.40
2017-05-30T02:47:32.144Z,23.40
2017-05-30T02:50:00.100Z,23.40
2017-05-30T02:52:28.418Z,23.30
2017-05-30T02:54:56.778Z,23.30
2017-05-30T02:57:25.459Z,23.20
2017-05-30T02:59:53.396Z,23.20
2017-05-30T03:02:21.404Z,23.10
2017-05-30T03:04:54.163Z,23.10
2017-05-30T03:07:22.748Z,23.00
2017-05-30T03:09:51.047Z,23.00
2017-05-30T03:14:48.673Z,22.80
2017-05-30T03:17:16.642Z,22.80
2017-05-30T03:19:44.985Z,22.80
2017-05-30T03:22:13.367Z,22.80
2017-05-30T03:24:41.324Z,22.80
2017-05-30T03:27:09.640Z,22.80
2017-05-30T03:29:38.739Z,22.80
2017-05-30T03:32:07.047Z,22.80
2017-05-30T03:34:34.986Z,22.80
2017-05-30T03:37:03.364Z,22.90
2017-05-30T03:39:31.343Z,22.90
2017-05-30T03:42:01.282Z,22.80
2017-05-30T03:44:29.352Z,22.80
2017-05-30T03:46:57.737Z,22.80
2017-05-30T03:49:25.804Z,22.80
2017-05-30T03:51:53.798Z,22.80
2017-05-30T03:54:22.100Z,22.80
2017-05-30T03:56:50.466Z,22.80
2017-05-30T03:59:18.607Z,22.60
2017-05-30T04:01:46.921Z,22.60
2017-05-30T04:04:15.244Z,22.70
2017-05-30T04:06:42.870Z,22.60
2017-05-30T04:09:10.424Z,22.70
2017-05-30T04:11:38.728Z,22.80
2017-05-30T04:14:06.706Z,22.80
2017-05-30T04:16:35.011Z,22.80
2017-05-30T04:19:02.938Z,22.80
2017-05-30T04:21:31.299Z,22.80
2017-05-30T04:23:59.263Z,22.70
2017-05-30T04:26:27.208Z,22.60
2017-05-30T04:28:55.555Z,22.70
2017-05-30T04:31:23.494Z,22.60
2017-05-30T04:33:51.805Z,22.60
2017-05-30T04:36:19.794Z,22.70
2017-05-30T04:38:48.466Z,22.70
2017-05-30T04:41:16.794Z,22.80
2017-05-30T04:43:45.164Z,22.80
2017-05-30T04:46:13.117Z,22.80
2017-05-30T04:48:41.440Z,22.80
2017-05-30T04:51:09.799Z,22.80
2017-05-30T04:53:37.741Z,22.80
2017-05-30T04:56:06.790Z,22.80
2017-05-30T04:58:34.775Z,22.90
2017-05-30T05:01:02.712Z,22.80
2017-05-30T05:03:31.839Z,22.90
2017-05-30T05:06:00.239Z,22.80
2017-05-30T05:10:57.451Z,22.90
2017-05-30T05:13:25.439Z,22.90
2017-05-30T05:15:53.744Z,22.90
2017-05-30T05:18:22.046Z,22.80
2017-05-30T05:20:50.406Z,22.70
2017-05-30T05:23:18.339Z,22.70
2017-05-30T05:25:46.659Z,22.60
2017-05-30T05:28:15.019Z,22.70
2017-05-30T05:30:43.358Z,22.70
2017-05-30T05:33:11.310Z,22.80
2017-05-30T05:35:39.678Z,22.80
2017-05-30T05:38:08.751Z,22.80
2017-05-30T05:40:37.424Z,22.80
2017-05-30T05:45:35.040Z,22.90
2017-05-30T05:48:03.001Z,22.90
2017-05-30T05:50:31.748Z,22.90
2017-05-30T05:53:00.081Z,22.90
2017-05-30T05:57:57.725Z,22.80
2017-05-30T06:00:26.403Z,22.90
2017-05-30T06:02:54.715Z,22.90
2017-05-30T06:05:22.695Z,22.90
2017-05-30T06:07:50.667Z,22.90
2017-05-30T06:10:18.968Z,23.00
2017-05-30T06:20:14.491Z,23.00
2017-05-30T06:27:40.666Z,23.30
2017-05-30T06:30:08.984Z,23.60
2017-05-30T06:32:37.295Z,23.70
2017-05-30T06:35:05.651Z,23.90
2017-05-30T06:37:33.959Z,23.90
2017-05-30T06:40:02.267Z,24.20
2017-05-30T06:42:30.636Z,24.40
2017-05-30T06:47:28.207Z,24.60
2017-05-30T06:49:56.559Z,25.00
2017-05-30T06:52:24.863Z,25.30
2017-05-30T06:54:53.167Z,25.60
2017-05-30T06:57:21.522Z,25.90
2017-05-30T06:59:49.454Z,26.20
2017-05-30T07:02:18.495Z,26.50
2017-05-30T07:04:46.500Z,26.60
2017-05-30T07:07:14.448Z,27.00
2017-05-30T07:09:42.767Z,27.20
2017-05-30T07:12:10.753Z,27.20
2017-05-30T07:14:38.702Z,27.30
2017-05-30T07:17:07.025Z,27.20
2017-05-30T07:19:35.384Z,26.90
2017-05-30T07:22:03.695Z,27.20
2017-05-30T07:24:31.641Z,27.50
2017-05-30T07:26:59.999Z,27.50
2017-05-30T07:29:28.319Z,27.80
2017-05-30T07:31:56.623Z,27.60
2017-05-30T07:34:24.604Z,27.70
2017-05-30T07:36:52.914Z,27.80
2017-05-30T07:39:21.223Z,28.00
2017-05-30T07:41:50.319Z,27.80
2017-05-30T07:44:18.260Z,27.70
2017-05-30T07:46:46.588Z,27.70
2017-05-30T07:49:14.967Z,27.50
2017-05-30T07:51:42.932Z,27.40
2017-05-30T07:54:11.283Z,27.30
2017-05-30T07:59:08.903Z,27.70
2017-05-30T08:01:37.212Z,27.80
2017-05-30T08:04:05.573Z,27.90
2017-05-30T08:06:33.878Z,27.90
2017-05-30T08:09:01.828Z,27.80
2017-05-30T08:11:30.242Z,27.80
2017-05-30T08:13:58.562Z,27.70
2017-05-30T08:16:26.500Z,27.70
2017-05-30T08:21:23.743Z,27.60
2017-05-30T08:23:52.055Z,27.60
2017-05-30T08:26:20.044Z,27.70
2017-05-30T08:28:48.355Z,27.80
2017-05-30T08:31:16.303Z,27.90
2017-05-30T08:33:44.676Z,27.90
2017-05-30T08:36:12.651Z,27.90
2017-05-30T08:38:40.592Z,27.80
2017-05-30T08:41:08.955Z,27.90
2017-05-30T08:43:37.269Z,28.10
2017-05-30T08:46:05.581Z,28.10
2017-05-30T08:48:33.571Z,28.20
2017-05-30T08:51:01.891Z,28.10
2017-05-30T08:53:30.219Z,28.10
2017-05-30T08:55:58.202Z,28.10
2017-05-30T08:58:26.506Z,28.10
2017-05-30T09:00:54.819Z,28.00
2017-05-30T09:03:23.215Z,28.00
2017-05-30T09:05:51.895Z,28.20
2017-05-30T09:08:20.208Z,28.20
2017-05-30T09:10:48.200Z,28.00
2017-05-30T09:13:16.146Z,28.10
2017-05-30T09:15:44.471Z,28.20
2017-05-30T09:18:12.473Z,28.40
2017-05-30T09:20:40.423Z,28.30
2017-05-30T09:23:08.735Z,28.10
2017-05-30T09:25:37.091Z,28.00
2017-05-30T09:28:05.400Z,28.10
2017-05-30T09:30:33.708Z,28.20
2017-05-30T09:33:02.071Z,28.10
2017-05-30T09:35:30.008Z,28.30
2017-05-30T09:37:58.316Z,28.40
2017-05-30T09:40:26.294Z,28.40
2017-05-30T09:42:54.602Z,28.30
2017-05-30T09:45:23.646Z,28.20
2017-05-30T09:47:52.000Z,28.30
2017-05-30T09:50:19.955Z,28.30
2017-05-30T09:52:47.899Z,28.20
2017-05-30T09:55:16.293Z,28.20
2017-05-30T09:57:44.243Z,28.20
2017-05-30T10:00:12.209Z,28.20
2017-05-30T10:02:40.571Z,28.30
2017-05-30T10:05:08.875Z,28.40
2017-05-30T10:07:36.811Z,28.50
2017-05-30T10:10:05.167Z,28.60
2017-05-30T10:12:33.470Z,28.80
2017-05-30T10:15:01.829Z,28.90
2017-05-30T10:17:29.819Z,29.20
2017-05-30T10:19:58.129Z,29.50
2017-05-30T10:22:26.439Z,29.60
2017-05-30T10:24:54.786Z,29.50
2017-05-30T10:27:23.459Z,29.40
2017-05-30T10:29:51.762Z,29.30
2017-05-30T10:32:19.738Z,29.20
2017-05-30T10:34:47.675Z,28.90
2017-05-30T10:37:15.993Z,28.80
2017-05-30T10:39:44.035Z,28.90
2017-05-30T10:42:12.366Z,29.00
2017-05-30T10:44:40.307Z,28.90
2017-05-30T10:47:08.667Z,28.80
2017-05-30T10:49:36.971Z,28.60
2017-05-30T10:52:05.271Z,28.40
2017-05-30T10:54:33.624Z,28.00
2017-05-30T10:57:01.567Z,28.10
2017-05-30T10:59:29.880Z,28.30
2017-05-30T11:04:27.110Z,28.70
2017-05-30T11:06:55.410Z,28.90
2017-05-30T11:09:23.427Z,28.90
2017-05-30T11:11:51.733Z,28.70
2017-05-30T11:14:19.666Z,28.50
2017-05-30T11:16:48.039Z,28.50
2017-05-30T11:19:15.987Z,28.50
2017-05-30T11:21:43.931Z,28.50
2017-05-30T11:24:12.311Z,28.40
2017-05-30T11:26:40.623Z,28.20
2017-05-30T11:29:08.562Z,28.00
2017-05-30T11:31:36.947Z,27.80
2017-05-30T11:34:05.259Z,27.90
2017-05-30T11:36:33.199Z,28.00
2017-05-30T11:39:01.595Z,28.10
2017-05-30T11:41:29.915Z,28.10
2017-05-30T11:43:57.854Z,28.00
2017-05-30T11:48:55.110Z,27.00
2017-05-30T11:51:23.415Z,26.50
2017-05-30T11:53:51.406Z,26.40
2017-05-30T11:56:19.710Z,26.10
2017-05-30T11:58:47.671Z,26.10
2017-05-30T12:01:15.679Z,26.20
2017-05-30T12:03:44.023Z,26.30
2017-05-30T12:06:11.976Z,26.20
2017-05-30T12:08:40.360Z,26.20
2017-05-30T12:11:08.676Z,26.20
2017-05-30T12:13:36.991Z,26.00
2017-05-30T12:16:04.975Z,26.00
2017-05-30T12:21:02.587Z,25.90
2017-05-30T12:23:30.952Z,25.90
2017-05-30T12:25:59.268Z,25.80
2017-05-30T12:28:28.080Z,25.90
2017-05-30T12:30:56.464Z,25.90
2017-05-30T12:33:25.147Z,26.00
2017-05-30T12:35:53.455Z,26.00
2017-05-30T12:38:21.440Z,26.20
2017-05-30T12:40:55.367Z,26.30
2017-05-30T12:43:24.458Z,26.30
2017-05-30T12:45:51.995Z,26.50
2017-05-30T12:48:19.940Z,26.70
2017-05-30T12:50:48.303Z,26.70
2017-05-30T12:53:16.622Z,26.60
2017-05-30T12:55:44.580Z,26.80
2017-05-30T12:58:12.954Z,26.70
2017-05-30T13:00:41.281Z,26.80
2017-05-30T13:03:09.235Z,26.60
2017-05-30T13:05:37.588Z,26.40
2017-05-30T13:08:05.900Z,26.20
2017-05-30T13:10:33.835Z,26.10
2017-05-30T13:13:02.224Z,26.20
2017-05-30T13:15:31.275Z,26.30
2017-05-30T13:17:59.586Z,26.40
2017-05-30T13:22:57.218Z,26.60
2017-05-30T13:25:25.518Z,26.60
2017-05-30T13:27:53.867Z,26.50
2017-05-30T13:30:21.808Z,26.40
2017-05-30T13:32:50.106Z,26.30
2017-05-30T13:35:18.455Z,26.20
2017-05-30T13:37:46.791Z,26.10
2017-05-30T13:40:14.758Z,26.00
2017-05-30T13:42:43.151Z,26.00
2017-05-30T13:45:11.506Z,26.10
2017-05-30T13:47:39.448Z,26.20
2017-05-30T13:50:07.799Z,26.20
2017-05-30T13:52:36.118Z,26.30
2017-05-30T13:55:04.791Z,26.30
2017-05-30T13:57:33.163Z,26.40
2017-05-30T14:00:01.111Z,26.50
2017-05-30T14:02:29.048Z,26.50
2017-05-30T14:04:57.398Z,26.40
2017-05-30T14:07:25.330Z,26.40
2017-05-30T14:09:53.631Z,26.50
2017-05-30T14:12:21.979Z,26.50
2017-05-30T14:14:49.932Z,26.50
2017-05-30T14:17:18.256Z,26.50
2017-05-30T14:19:46.642Z,26.50
2017-05-30T14:22:14.971Z,26.50
2017-05-30T14:24:42.955Z,26.40
2017-05-30T14:27:11.356Z,26.30
2017-05-30T14:29:39.663Z,26.30
2017-05-30T14:32:07.595Z,26.20
2017-05-30T14:37:04.854Z,26.30
2017-05-30T14:39:32.809Z,26.20
2017-05-30T14:42:01.175Z,26.30
2017-05-30T14:44:29.133Z,26.20
2017-05-30T14:46:57.087Z,26.20
2017-05-30T14:49:25.438Z,26.10
2017-05-30T14:51:53.433Z,26.10
2017-05-30T14:54:21.779Z,26.20
2017-05-30T14:56:50.139Z,26.20
2017-05-30T14:59:18.160Z,26.20
2017-05-30T15:01:46.847Z,26.20
2017-05-30T15:04:14.851Z,26.10
2017-05-30T15:06:42.812Z,26.10
2017-05-30T15:11:40.547Z,26.00
2017-05-30T15:14:09.651Z,26.00
2017-05-30T15:16:38.697Z,25.90
2017-05-30T15:19:06.680Z,25.90
2017-05-30T15:21:34.990Z,25.90
2017-05-30T15:24:02.954Z,25.90
2017-05-30T15:26:30.968Z,25.90
2017-05-30T15:28:58.942Z,25.90
2017-05-30T15:31:27.284Z,25.90
2017-05-30T15:33:55.304Z,25.90
2017-05-30T15:36:23.613Z,25.90
2017-05-30T15:38:51.915Z,25.90
2017-05-30T15:41:20.346Z,25.70
2017-05-30T15:43:48.288Z,25.70
2017-05-30T15:46:16.625Z,25.50
2017-05-30T15:48:45.080Z,25.60
2017-05-30T15:51:13.039Z,25.60
2017-05-30T15:56:10.363Z,25.80
2017-05-30T15:58:38.291Z,25.80
2017-05-30T16:01:06.587Z,25.60
2017-05-30T16:03:34.572Z,25.60
2017-05-30T16:06:02.886Z,25.40
2017-05-30T16:08:30.832Z,25.40
2017-05-30T16:10:58.822Z,25.30
2017-05-30T16:13:27.118Z,25.30
2017-05-30T16:15:55.428Z,25.20
2017-05-30T16:18:23.789Z,25.20
2017-05-30T16:20:51.724Z,25.30
2017-05-30T16:23:20.023Z,25.30
2017-05-30T16:25:48.383Z,25.40
2017-05-30T16:28:16.701Z,25.30
2017-05-30T16:30:45.044Z,25.30
2017-05-30T16:33:13.037Z,25.40
2017-05-30T16:35:41.363Z,25.40
2017-05-30T16:38:10.039Z,25.50
2017-05-30T16:40:38.415Z,25.40
2017-05-30T16:43:06.350Z,25.40
2017-05-30T16:45:34.650Z,25.40
2017-05-30T16:48:03.769Z,25.30
2017-05-30T16:50:32.816Z,25.30
2017-05-30T16:53:01.503Z,25.20
2017-05-30T16:55:29.862Z,25.10
2017-05-30T16:57:58.217Z,25.00
2017-05-30T17:00:26.515Z,24.90
2017-05-30T17:05:24.138Z,24.80
2017-05-30T17:07:52.072Z,24.80
2017-05-30T17:10:20.414Z,24.90
2017-05-30T17:12:48.714Z,24.80
2017-05-30T17:15:17.040Z,24.80
2017-05-30T17:17:45.049Z,24.70
2017-05-30T17:20:13.383Z,24.60
2017-05-30T17:22:42.484Z,24.60
2017-05-30T17:25:10.486Z,24.60
2017-05-30T17:30:08.424Z,24.50
2017-05-30T17:32:36.792Z,24.40
2017-05-30T17:35:05.468Z,24.50
2017-05-30T17:37:33.779Z,24.50
2017-05-30T17:40:02.158Z,24.40
2017-05-30T17:47:28.052Z,24.20
2017-05-30T17:57:22.759Z,24.10
2017-05-30T17:59:51.058Z,24.10
2017-05-30T18:02:20.158Z,24.10
2017-05-30T18:04:48.099Z,24.00
2017-05-30T18:07:16.411Z,23.90
2017-05-30T18:09:44.794Z,23.90
2017-05-30T18:12:13.125Z,23.80
2017-05-30T18:14:41.438Z,23.70
2017-05-30T18:19:38.683Z,23.60
2017-05-30T18:22:07.359Z,23.40
2017-05-30T18:24:35.362Z,23.40
2017-05-30T18:27:04.039Z,23.40
2017-05-30T18:29:31.991Z,23.30
2017-05-30T18:31:59.987Z,23.20
2017-05-30T18:39:25.747Z,23.00
2017-05-30T18:41:53.679Z,23.00
2017-05-30T18:44:21.980Z,23.00
2017-05-30T18:46:50.074Z,23.00
2017-05-30T18:49:18.017Z,22.90
2017-05-30T18:51:46.344Z,22.80
2017-05-30T18:54:14.338Z,22.70
2017-05-30T18:56:42.277Z,22.70
2017-05-30T18:59:10.589Z,22.60
2017-05-30T19:01:40.374Z,22.60
2017-05-30T19:04:09.048Z,22.60
2017-05-30T19:06:37.366Z,22.60
2017-05-30T19:09:05.389Z,22.50
2017-05-30T19:11:33.340Z,22.40
2017-05-30T19:14:01.352Z,22.40
2017-05-30T19:16:30.181Z,22.30
2017-05-30T19:21:27.567Z,22.30
2017-05-30T19:23:55.895Z,22.30
2017-05-30T19:28:54.055Z,22.20
2017-05-30T19:31:22.647Z,22.10
2017-05-30T19:33:50.953Z,22.10
2017-05-30T19:36:19.176Z,22.10
2017-05-30T19:41:16.549Z,21.90
2017-05-30T19:43:44.856Z,21.90
2017-05-30T19:46:12.843Z,21.80
2017-05-30T19:53:39.906Z,21.80
2017-05-30T19:56:08.215Z,21.70
2017-05-30T19:58:36.237Z,21.70
2017-05-30T20:01:04.598Z,21.80
2017-05-30T20:06:01.464Z,21.80
2017-05-30T20:08:30.037Z,21.90
2017-05-30T20:10:58.395Z,21.80
2017-05-30T20:13:26.323Z,21.80
2017-05-30T20:20:52.098Z,21.80
2017-05-30T20:23:20.479Z,21.60
2017-05-30T20:25:49.150Z,21.50
2017-05-30T20:28:17.887Z,21.40
2017-05-30T20:30:47.025Z,21.40
2017-05-30T20:33:15.436Z,21.40
2017-05-30T20:35:43.771Z,21.30
2017-05-30T20:38:11.803Z,21.30
2017-05-30T20:40:40.111Z,21.30
2017-05-30T20:43:08.434Z,21.30
2017-05-30T20:45:36.404Z,21.30
2017-05-30T20:48:05.598Z,21.30
2017-05-30T20:50:33.931Z,21.30
2017-05-30T20:53:02.375Z,21.30
2017-05-30T20:55:30.684Z,21.30
2017-05-30T21:00:27.917Z,21.40
2017-05-30T21:02:56.218Z,21.40
2017-05-30T21:05:24.587Z,21.40
2017-05-30T21:07:52.644Z,21.40
2017-05-30T21:10:20.967Z,21.30
2017-05-30T21:12:48.934Z,21.30
2017-05-30T21:17:45.911Z,21.20
2017-05-30T21:20:13.884Z,21.20
2017-05-30T21:22:43.069Z,21.20
2017-05-30T21:25:11.005Z,21.20
2017-05-30T21:27:39.311Z,21.10
2017-05-30T21:30:07.708Z,21.00
2017-05-30T21:32:36.018Z,21.10
2017-05-30T21:35:04.391Z,21.10
2017-05-30T21:40:02.662Z,21.00
2017-05-30T21:42:30.967Z,20.90
2017-05-30T21:44:58.954Z,20.90
2017-05-30T21:49:56.908Z,21.00
2017-05-30T21:52:24.908Z,20.90
2017-05-30T21:54:53.232Z,20.90
2017-05-30T21:57:21.186Z,20.90
2017-05-30T21:59:49.586Z,20.80
2017-05-30T22:02:17.589Z,20.80
2017-05-30T22:09:44.134Z,20.80
2017-05-30T22:12:12.442Z,20.80
2017-05-30T22:14:41.607Z,20.80
2017-05-30T22:17:09.551Z,20.80
2017-05-30T22:19:37.903Z,20.80
2017-05-30T22:22:06.326Z,20.80
2017-05-30T22:27:04.014Z,20.80
2017-05-30T22:29:32.042Z,20.80
2017-05-30T22:32:00.371Z,20.80
2017-05-30T22:34:29.173Z,20.70
2017-05-30T22:36:57.542Z,20.70
2017-05-30T22:41:55.103Z,20.60
2017-05-30T22:44:23.483Z,20.60
2017-05-30T22:46:51.800Z,20.60
2017-05-30T22:49:20.126Z,20.40
2017-05-30T22:51:49.216Z,20.40
2017-05-30T22:54:17.623Z,20.40
2017-05-30T22:56:45.964Z,20.40
2017-05-30T22:59:14.328Z,20.40
2017-05-30T23:01:43.370Z,20.30
2017-05-30T23:04:11.675Z,20.30
2017-05-30T23:06:39.647Z,20.20
2017-05-30T23:09:07.951Z,20.20
2017-05-30T23:11:36.754Z,20.10
2017-05-30T23:14:07.131Z,20.10
2017-05-30T23:19:04.802Z,19.90
2017-05-30T23:24:08.192Z,19.80
2017-05-30T23:26:36.552Z,19.80
2017-05-30T23:29:04.514Z,19.70
2017-05-30T23:31:32.834Z,19.60
2017-05-30T23:34:00.843Z,19.60
2017-05-30T23:41:27.391Z,19.40
2017-05-30T23:43:55.334Z,19.40
2017-05-30T23:46:23.352Z,19.40
2017-05-30T23:48:51.705Z,19.30
2017-05-30T23:51:20.746Z,19.30
2017-05-30T23:53:49.048Z,19.30
2017-05-30T23:58:46.491Z,19.30
